sensor_id;sensor_type;location;lat;lon;timestamp;pressure;altitude;pressure_sealevel;temperature;humidity
18167;BME280;9208;42.688;23.404;2023-03-04T00:01:11;95526.66;;;8.14;100.00
18167;BME280;9208;42.688;23.404;2023-03-04T00:03:37;95533.22;;;8.07;100.00
18167;BME280;9208;42.688;23.404;2023-03-04T00:06:02;95527.91;;;8.04;100.00
18167;BME280;9208;42.688;23.404;2023-03-04T00:08:28;95531.53;;;8.10;100.00
18167;BME280;9208;42.688;23.404;2023-03-04T00:10:54;95530.94;;;8.06;100.00
18167;BME280;9208;42.688;23.404;2023-03-04T00:13:19;95531.88;;;8.03;100.00
18167;BME280;9208;42.688;23.404;2023-03-04T00:15:46;95526.09;;;8.01;100.00
18167;BME280;9208;42.688;23.404;2023-03-04T00:18:12;95520.03;;;7.97;100.00
18167;BME280;9208;42.688;23.404;2023-03-04T00:20:37;95508.84;;;7.95;100.00
18167;BME280;9208;42.688;23.404;2023-03-04T00:23:02;95512.78;;;7.94;100.00
18167;BME280;9208;42.688;23.404;2023-03-04T00:25:28;95520.50;;;8.04;100.00
18167;BME280;9208;42.688;23.404;2023-03-04T00:27:53;95519.09;;;8.09;100.00
18167;BME280;9208;42.688;23.404;2023-03-04T00:30:19;95510.59;;;8.16;100.00
18167;BME280;9208;42.688;23.404;2023-03-04T00:32:44;95514.69;;;8.20;100.00
18167;BME280;9208;42.688;23.404;2023-03-04T00:35:10;95509.25;;;8.20;100.00
18167;BME280;9208;42.688;23.404;2023-03-04T00:37:35;95499.81;;;8.21;100.00
18167;BME280;9208;42.688;23.404;2023-03-04T00:40:00;95499.81;;;8.21;100.00
18167;BME280;9208;42.688;23.404;2023-03-04T00:42:26;95503.47;;;8.18;100.00
18167;BME280;9208;42.688;23.404;2023-03-04T00:44:51;95504.09;;;8.13;100.00
18167;BME280;9208;42.688;23.404;2023-03-04T00:47:17;95500.88;;;8.15;100.00
18167;BME280;9208;42.688;23.404;2023-03-04T00:49:42;95508.94;;;8.09;100.00
18167;BME280;9208;42.688;23.404;2023-03-04T00:52:07;95511.38;;;8.07;100.00
18167;BME280;9208;42.688;23.404;2023-03-04T00:54:33;95508.63;;;8.07;100.00
18167;BME280;9208;42.688;23.404;2023-03-04T00:56:59;95508.34;;;8.05;100.00
18167;BME280;9208;42.688;23.404;2023-03-04T00:59:24;95497.44;;;8.05;100.00
18167;BME280;9208;42.688;23.404;2023-03-04T01:01:49;95498.16;;;8.06;100.00
18167;BME280;9208;42.688;23.404;2023-03-04T01:04:15;95492.44;;;8.04;100.00
18167;BME280;9208;42.688;23.404;2023-03-04T01:06:40;95499.56;;;8.01;100.00
18167;BME280;9208;42.688;23.404;2023-03-04T01:09:06;95502.28;;;8.01;100.00
18167;BME280;9208;42.688;23.404;2023-03-04T01:11:32;95503.50;;;8.00;100.00
18167;BME280;9208;42.688;23.404;2023-03-04T01:14:00;95494.72;;;7.96;100.00
18167;BME280;9208;42.688;23.404;2023-03-04T01:16:26;95499.25;;;7.99;100.00
18167;BME280;9208;42.688;23.404;2023-03-04T01:18:51;95500.47;;;7.98;100.00
18167;BME280;9208;42.688;23.404;2023-03-04T01:21:17;95487.88;;;8.01;100.00
18167;BME280;9208;42.688;23.404;2023-03-04T01:23:42;95487.44;;;7.93;100.00
18167;BME280;9208;42.688;23.404;2023-03-04T01:26:08;95490.78;;;7.97;100.00
18167;BME280;9208;42.688;23.404;2023-03-04T01:28:33;95486.66;;;8.02;100.00
18167;BME280;9208;42.688;23.404;2023-03-04T01:31:01;95480.13;;;7.99;100.00
18167;BME280;9208;42.688;23.404;2023-03-04T01:33:27;95479.84;;;7.97;100.00
18167;BME280;9208;42.688;23.404;2023-03-04T01:35:52;95484.09;;;7.98;100.00
18167;BME280;9208;42.688;23.404;2023-03-04T01:38:18;95483.63;;;8.00;100.00
18167;BME280;9208;42.688;23.404;2023-03-04T01:40:43;95477.72;;;8.01;100.00
18167;BME280;9208;42.688;23.404;2023-03-04T01:43:20;95477.28;;;8.03;100.00
18167;BME280;9208;42.688;23.404;2023-03-04T01:45:48;95471.50;;;8.01;100.00
18167;BME280;9208;42.688;23.404;2023-03-04T01:48:16;95465.59;;;8.02;100.00
18167;BME280;9208;42.688;23.404;2023-03-04T01:50:43;95453.44;;;8.03;100.00
18167;BME280;9208;42.688;23.404;2023-03-04T01:53:22;95460.88;;;8.03;100.00
18167;BME280;9208;42.688;23.404;2023-03-04T01:55:49;95455.88;;;8.01;100.00
18167;BME280;9208;42.688;23.404;2023-03-04T01:58:16;95460.47;;;7.95;100.00
18167;BME280;9208;42.688;23.404;2023-03-04T02:00:42;95460.16;;;7.93;100.00
18167;BME280;9208;42.688;23.404;2023-03-04T02:03:10;95464.09;;;7.92;100.00
18167;BME280;9208;42.688;23.404;2023-03-04T02:05:43;95449.88;;;7.88;100.00
18167;BME280;9208;42.688;23.404;2023-03-04T02:08:11;95456.22;;;7.85;100.00
18167;BME280;9208;42.688;23.404;2023-03-04T02:10:39;95453.50;;;7.85;100.00
18167;BME280;9208;42.688;23.404;2023-03-04T02:13:06;95457.75;;;7.86;100.00
18167;BME280;9208;42.688;23.404;2023-03-04T02:15:31;95456.41;;;7.82;100.00
18167;BME280;9208;42.688;23.404;2023-03-04T02:17:57;95455.38;;;7.70;100.00
18167;BME280;9208;42.688;23.404;2023-03-04T02:25:49;95454.47;;;7.73;100.00
18167;BME280;9208;42.688;23.404;2023-03-04T02:28:17;95457.50;;;7.66;100.00
18167;BME280;9208;42.688;23.404;2023-03-04T02:30:43;95453.44;;;7.53;100.00
18167;BME280;9208;42.688;23.404;2023-03-04T02:33:16;95454.19;;;7.44;100.00
18167;BME280;9208;42.688;23.404;2023-03-04T02:35:42;95454.66;;;7.34;100.00
18167;BME280;9208;42.688;23.404;2023-03-04T02:38:10;95448.47;;;7.33;100.00
18167;BME280;9208;42.688;23.404;2023-03-04T02:40:36;95459.38;;;7.33;100.00
18167;BME280;9208;42.688;23.404;2023-03-04T02:43:03;95448.31;;;7.28;100.00
18167;BME280;9208;42.688;23.404;2023-03-04T02:45:38;95445.44;;;7.31;100.00
18167;BME280;9208;42.688;23.404;2023-03-04T02:48:04;95446.03;;;7.35;100.00
18167;BME280;9208;42.688;23.404;2023-03-04T02:50:34;95435.28;;;7.41;100.00
18167;BME280;9208;42.688;23.404;2023-03-04T02:52:59;95436.31;;;7.43;100.00
18167;BME280;9208;42.688;23.404;2023-03-04T02:55:25;95443.13;;;7.48;100.00
18167;BME280;9208;42.688;23.404;2023-03-04T02:57:50;95440.56;;;7.53;100.00
18167;BME280;9208;42.688;23.404;2023-03-04T03:00:16;95438.00;;;7.50;100.00
18167;BME280;9208;42.688;23.404;2023-03-04T03:02:42;95440.38;;;7.57;100.00
18167;BME280;9208;42.688;23.404;2023-03-04T03:05:07;95442.19;;;7.60;100.00
18167;BME280;9208;42.688;23.404;2023-03-04T03:07:32;95441.44;;;7.50;100.00
18167;BME280;9208;42.688;23.404;2023-03-04T03:09:59;95439.34;;;7.45;100.00
18167;BME280;9208;42.688;23.404;2023-03-04T03:12:25;95452.97;;;7.45;100.00
18167;BME280;9208;42.688;23.404;2023-03-04T03:14:52;95437.84;;;7.35;100.00
18167;BME280;9208;42.688;23.404;2023-03-04T03:17:17;95449.09;;;7.28;100.00
18167;BME280;9208;42.688;23.404;2023-03-04T03:19:43;95445.44;;;7.22;100.00
18167;BME280;9208;42.688;23.404;2023-03-04T03:22:08;95440.91;;;7.28;100.00
18167;BME280;9208;42.688;23.404;2023-03-04T03:24:34;95448.16;;;7.22;100.00
18167;BME280;9208;42.688;23.404;2023-03-04T03:26:59;95449.09;;;7.19;100.00
18167;BME280;9208;42.688;23.404;2023-03-04T03:29:25;95452.28;;;7.18;100.00
18167;BME280;9208;42.688;23.404;2023-03-04T03:31:50;95444.53;;;7.16;100.00
18167;BME280;9208;42.688;23.404;2023-03-04T03:34:15;95434.41;;;7.17;100.00
18167;BME280;9208;42.688;23.404;2023-03-04T03:36:41;95436.22;;;7.11;100.00
18167;BME280;9208;42.688;23.404;2023-03-04T03:39:06;95429.09;;;7.13;100.00
18167;BME280;9208;42.688;23.404;2023-03-04T03:41:31;95428.19;;;7.07;100.00
18167;BME280;9208;42.688;23.404;2023-03-04T03:43:57;95435.31;;;7.14;100.00
18167;BME280;9208;42.688;23.404;2023-03-04T03:46:22;95428.19;;;7.07;100.00
18167;BME280;9208;42.688;23.404;2023-03-04T03:48:48;95437.28;;;6.95;100.00
18167;BME280;9208;42.688;23.404;2023-03-04T03:51:13;95438.50;;;6.94;100.00
18167;BME280;9208;42.688;23.404;2023-03-04T03:53:39;95425.91;;;6.88;100.00
18167;BME280;9208;42.688;23.404;2023-03-04T03:56:05;95435.75;;;6.85;100.00
18167;BME280;9208;42.688;23.404;2023-03-04T03:58:30;95424.25;;;6.81;100.00
18167;BME280;9208;42.688;23.404;2023-03-04T04:00:56;95417.91;;;6.84;100.00
18167;BME280;9208;42.688;23.404;2023-03-04T04:03:21;95418.50;;;6.79;100.00
18167;BME280;9208;42.688;23.404;2023-03-04T04:05:47;95416.53;;;6.80;100.00
18167;BME280;9208;42.688;23.404;2023-03-04T04:08:14;95415.00;;;6.79;100.00
18167;BME280;9208;42.688;23.404;2023-03-04T04:10:40;95412.75;;;6.77;100.00
18167;BME280;9208;42.688;23.404;2023-03-04T04:13:05;95417.44;;;6.77;100.00
18167;BME280;9208;42.688;23.404;2023-03-04T04:15:31;95413.34;;;6.72;100.00
18167;BME280;9208;42.688;23.404;2023-03-04T04:17:56;95413.97;;;6.76;100.00
18167;BME280;9208;42.688;23.404;2023-03-04T04:20:22;95416.06;;;6.72;100.00
18167;BME280;9208;42.688;23.404;2023-03-04T04:22:47;95414.25;;;6.78;100.00
18167;BME280;9208;42.688;23.404;2023-03-04T04:25:13;95407.16;;;6.63;100.00
18167;BME280;9208;42.688;23.404;2023-03-04T04:27:38;95419.25;;;6.71;100.00
18167;BME280;9208;42.688;23.404;2023-03-04T04:30:04;95421.97;;;6.62;100.00
18167;BME280;9208;42.688;23.404;2023-03-04T04:32:30;95422.72;;;6.62;100.00
18167;BME280;9208;42.688;23.404;2023-03-04T04:34:55;95414.53;;;6.53;100.00
18167;BME280;9208;42.688;23.404;2023-03-04T04:37:20;95418.16;;;6.50;100.00
18167;BME280;9208;42.688;23.404;2023-03-04T04:39:46;95414.53;;;6.44;100.00
18167;BME280;9208;42.688;23.404;2023-03-04T04:42:11;95426.03;;;6.39;100.00
18167;BME280;9208;42.688;23.404;2023-03-04T04:44:37;95424.00;;;6.31;100.00
18167;BME280;9208;42.688;23.404;2023-03-04T04:47:04;95412.97;;;6.25;100.00
18167;BME280;9208;42.688;23.404;2023-03-04T04:49:30;95418.09;;;6.23;100.00
18167;BME280;9208;42.688;23.404;2023-03-04T04:51:56;95424.31;;;6.24;100.00
18167;BME280;9208;42.688;23.404;2023-03-04T04:54:21;95421.16;;;6.25;100.00
18167;BME280;9208;42.688;23.404;2023-03-04T04:56:47;95430.22;;;6.31;100.00
18167;BME280;9208;42.688;23.404;2023-03-04T04:59:12;95426.13;;;6.36;100.00
18167;BME280;9208;42.688;23.404;2023-03-04T05:01:38;95437.50;;;6.34;100.00
18167;BME280;9208;42.688;23.404;2023-03-04T05:04:03;95432.19;;;6.31;100.00
18167;BME280;9208;42.688;23.404;2023-03-04T05:06:29;95425.09;;;6.42;100.00
18167;BME280;9208;42.688;23.404;2023-03-04T05:08:54;95429.66;;;6.45;100.00
18167;BME280;9208;42.688;23.404;2023-03-04T05:11:21;95444.66;;;6.59;100.00
18167;BME280;9208;42.688;23.404;2023-03-04T05:13:47;95437.56;;;6.61;100.00
18167;BME280;9208;42.688;23.404;2023-03-04T05:16:16;95445.72;;;6.61;100.00
18167;BME280;9208;42.688;23.404;2023-03-04T05:18:41;95452.97;;;6.55;100.00
18167;BME280;9208;42.688;23.404;2023-03-04T05:21:07;95452.81;;;6.50;100.00
18167;BME280;9208;42.688;23.404;2023-03-04T05:23:35;95446.78;;;6.64;100.00
18167;BME280;9208;42.688;23.404;2023-03-04T05:26:02;95444.06;;;6.73;100.00
18167;BME280;9208;42.688;23.404;2023-03-04T05:28:28;95451.03;;;6.74;100.00
18167;BME280;9208;42.688;23.404;2023-03-04T05:30:54;95450.88;;;6.77;100.00
18167;BME280;9208;42.688;23.404;2023-03-04T05:33:19;95456.34;;;6.77;100.00
18167;BME280;9208;42.688;23.404;2023-03-04T05:35:46;95466.63;;;6.82;100.00
18167;BME280;9208;42.688;23.404;2023-03-04T05:38:14;95464.81;;;6.79;100.00
18167;BME280;9208;42.688;23.404;2023-03-04T05:40:40;95465.72;;;6.76;100.00
18167;BME280;9208;42.688;23.404;2023-03-04T05:43:06;95469.81;;;6.81;100.00
18167;BME280;9208;42.688;23.404;2023-03-04T05:45:32;95466.19;;;6.84;100.00
18167;BME280;9208;42.688;23.404;2023-03-04T05:47:57;95460.13;;;6.89;100.00
18167;BME280;9208;42.688;23.404;2023-03-04T05:50:23;95470.41;;;6.85;100.00
18167;BME280;9208;42.688;23.404;2023-03-04T05:52:49;95460.28;;;6.85;100.00
18167;BME280;9208;42.688;23.404;2023-03-04T05:55:15;95468.63;;;6.91;100.00
18167;BME280;9208;42.688;23.404;2023-03-04T05:57:41;95461.78;;;6.95;100.00
18167;BME280;9208;42.688;23.404;2023-03-04T06:00:12;95473.16;;;7.03;100.00
18167;BME280;9208;42.688;23.404;2023-03-04T06:02:38;95465.91;;;7.00;100.00
18167;BME280;9208;42.688;23.404;2023-03-04T06:05:05;95480.13;;;7.04;100.00
18167;BME280;9208;42.688;23.404;2023-03-04T06:07:30;95483.00;;;7.09;100.00
18167;BME280;9208;42.688;23.404;2023-03-04T06:09:56;95472.09;;;7.09;100.00
18167;BME280;9208;42.688;23.404;2023-03-04T06:12:22;95480.75;;;7.08;100.00
18167;BME280;9208;42.688;23.404;2023-03-04T06:14:47;95488.44;;;7.09;100.00
18167;BME280;9208;42.688;23.404;2023-03-04T06:17:13;95488.16;;;7.16;100.00
18167;BME280;9208;42.688;23.404;2023-03-04T06:19:38;95484.53;;;7.10;100.00
18167;BME280;9208;42.688;23.404;2023-03-04T06:22:06;95483.75;;;7.10;100.00
18167;BME280;9208;42.688;23.404;2023-03-04T06:24:32;95481.81;;;7.10;100.00
18167;BME280;9208;42.688;23.404;2023-03-04T06:26:57;95487.56;;;7.12;100.00
18167;BME280;9208;42.688;23.404;2023-03-04T06:29:23;95487.38;;;7.16;100.00
18167;BME280;9208;42.688;23.404;2023-03-04T06:31:48;95487.84;;;7.23;100.00
18167;BME280;9208;42.688;23.404;2023-03-04T06:34:14;95483.00;;;7.27;100.00
18167;BME280;9208;42.688;23.404;2023-03-04T06:36:39;95483.59;;;7.22;100.00
18167;BME280;9208;42.688;23.404;2023-03-04T06:39:05;95492.84;;;7.25;100.00
18167;BME280;9208;42.688;23.404;2023-03-04T06:41:31;95500.28;;;7.33;100.00
18167;BME280;9208;42.688;23.404;2023-03-04T06:43:57;95498.16;;;7.37;100.00
18167;BME280;9208;42.688;23.404;2023-03-04T06:46:23;95498.63;;;7.36;100.00
18167;BME280;9208;42.688;23.404;2023-03-04T06:48:48;95492.72;;;7.28;100.00
18167;BME280;9208;42.688;23.404;2023-03-04T06:51:15;95500.56;;;7.35;100.00
18167;BME280;9208;42.688;23.404;2023-03-04T06:53:41;95498.00;;;7.41;100.00
18167;BME280;9208;42.688;23.404;2023-03-04T06:56:08;95502.25;;;7.42;100.00
18167;BME280;9208;42.688;23.404;2023-03-04T06:58:34;95504.69;;;7.31;100.00
18167;BME280;9208;42.688;23.404;2023-03-04T07:01:15;95510.25;;;7.36;100.00
18167;BME280;9208;42.688;23.404;2023-03-04T07:03:41;95506.63;;;7.30;100.00
18167;BME280;9208;42.688;23.404;2023-03-04T07:06:12;95509.22;;;7.34;100.00
18167;BME280;9208;42.688;23.404;2023-03-04T07:08:39;95507.25;;;7.34;100.00
18167;BME280;9208;42.688;23.404;2023-03-04T07:11:04;95511.63;;;7.41;100.00
18167;BME280;9208;42.688;23.404;2023-03-04T07:13:30;95512.09;;;7.39;100.00
18167;BME280;9208;42.688;23.404;2023-03-04T07:15:56;95519.06;;;7.40;100.00
18167;BME280;9208;42.688;23.404;2023-03-04T07:18:23;95514.97;;;7.45;100.00
18167;BME280;9208;42.688;23.404;2023-03-04T07:20:51;95508.47;;;7.51;100.00
18167;BME280;9208;42.688;23.404;2023-03-04T07:23:17;95515.25;;;7.56;100.00
18167;BME280;9208;42.688;23.404;2023-03-04T07:25:43;95512.38;;;7.50;100.00
18167;BME280;9208;42.688;23.404;2023-03-04T07:28:08;95512.38;;;7.50;100.00
18167;BME280;9208;42.688;23.404;2023-03-04T07:30:34;95510.25;;;7.54;100.00
18167;BME280;9208;42.688;23.404;2023-03-04T07:32:59;95512.97;;;7.54;100.00
18167;BME280;9208;42.688;23.404;2023-03-04T07:35:25;95512.06;;;7.57;100.00
18167;BME280;9208;42.688;23.404;2023-03-04T07:37:50;95518.13;;;7.61;100.00
18167;BME280;9208;42.688;23.404;2023-03-04T07:40:15;95520.09;;;7.52;100.00
18167;BME280;9208;42.688;23.404;2023-03-04T07:42:41;95516.19;;;7.53;100.00
18167;BME280;9208;42.688;23.404;2023-03-04T07:45:07;95513.91;;;7.51;100.00
18167;BME280;9208;42.688;23.404;2023-03-04T07:47:33;95517.81;;;7.50;100.00
18167;BME280;9208;42.688;23.404;2023-03-04T07:49:59;95514.81;;;7.57;100.00
18167;BME280;9208;42.688;23.404;2023-03-04T07:52:24;95509.81;;;7.56;100.00
18167;BME280;9208;42.688;23.404;2023-03-04T07:54:50;95512.69;;;7.61;100.00
18167;BME280;9208;42.688;23.404;2023-03-04T07:57:15;95508.72;;;7.62;100.00
18167;BME280;9208;42.688;23.404;2023-03-04T07:59:41;95508.13;;;7.67;100.00
18167;BME280;9208;42.688;23.404;2023-03-04T08:02:06;95509.31;;;7.75;100.00
18167;BME280;9208;42.688;23.404;2023-03-04T08:04:32;95509.47;;;7.81;100.00
18167;BME280;9208;42.688;23.404;2023-03-04T08:06:57;95500.84;;;7.82;100.00
18167;BME280;9208;42.688;23.404;2023-03-04T08:09:23;95504.31;;;7.83;100.00
18167;BME280;9208;42.688;23.404;2023-03-04T08:11:48;95509.00;;;7.91;100.00
18167;BME280;9208;42.688;23.404;2023-03-04T08:14:14;95506.13;;;7.86;100.00
18167;BME280;9208;42.688;23.404;2023-03-04T08:16:40;95510.19;;;7.90;100.00
18167;BME280;9208;42.688;23.404;2023-03-04T08:19:06;95507.31;;;7.94;100.00
18167;BME280;9208;42.688;23.404;2023-03-04T08:21:32;95508.38;;;7.96;100.00
18167;BME280;9208;42.688;23.404;2023-03-04T08:23:59;95508.66;;;7.98;100.00
18167;BME280;9208;42.688;23.404;2023-03-04T08:26:32;95504.13;;;8.04;100.00
18167;BME280;9208;42.688;23.404;2023-03-04T08:29:00;95505.34;;;7.94;100.00
18167;BME280;9208;42.688;23.404;2023-03-04T08:31:25;95501.25;;;7.90;100.00
18167;BME280;9208;42.688;23.404;2023-03-04T08:33:57;95509.00;;;7.91;100.00
18167;BME280;9208;42.688;23.404;2023-03-04T08:36:22;95502.31;;;7.92;100.00
18167;BME280;9208;42.688;23.404;2023-03-04T08:38:48;95498.97;;;7.97;100.00
18167;BME280;9208;42.688;23.404;2023-03-04T08:41:13;95499.56;;;8.01;100.00
18167;BME280;9208;42.688;23.404;2023-03-04T08:43:39;95491.97;;;8.05;100.00
18167;BME280;9208;42.688;23.404;2023-03-04T08:46:05;95490.13;;;8.11;100.00
18167;BME280;9208;42.688;23.404;2023-03-04T08:48:31;95488.75;;;8.16;100.00
18167;BME280;9208;42.688;23.404;2023-03-04T08:50:56;95487.81;;;8.19;100.00
18167;BME280;9208;42.688;23.404;2023-03-04T08:53:22;95485.84;;;8.19;100.00
18167;BME280;9208;42.688;23.404;2023-03-04T08:55:49;95495.41;;;8.24;100.00
18167;BME280;9208;42.688;23.404;2023-03-04T08:58:15;95491.00;;;8.26;100.00
18167;BME280;9208;42.688;23.404;2023-03-04T09:00:43;95495.09;;;8.31;100.00
18167;BME280;9208;42.688;23.404;2023-03-04T09:03:11;95487.31;;;8.38;100.00
18167;BME280;9208;42.688;23.404;2023-03-04T09:05:37;95493.09;;;8.40;100.00
18167;BME280;9208;42.688;23.404;2023-03-04T09:08:03;95483.34;;;8.39;100.00
18167;BME280;9208;42.688;23.404;2023-03-04T09:10:28;95481.66;;;8.42;100.00
18167;BME280;9208;42.688;23.404;2023-03-04T09:12:54;95480.94;;;8.41;100.00
18167;BME280;9208;42.688;23.404;2023-03-04T09:15:19;95479.88;;;8.39;100.00
18167;BME280;9208;42.688;23.404;2023-03-04T09:17:45;95486.53;;;8.38;100.00
18167;BME280;9208;42.688;23.404;2023-03-04T09:20:11;95474.44;;;8.39;100.00
18167;BME280;9208;42.688;23.404;2023-03-04T09:22:40;95474.59;;;8.26;100.00
18167;BME280;9208;42.688;23.404;2023-03-04T09:25:07;95464.31;;;8.12;100.00
18167;BME280;9208;42.688;23.404;2023-03-04T09:27:33;95467.97;;;8.18;100.00
18167;BME280;9208;42.688;23.404;2023-03-04T09:29:58;95466.56;;;8.32;100.00
18167;BME280;9208;42.688;23.404;2023-03-04T09:32:24;95458.63;;;8.43;100.00
18167;BME280;9208;42.688;23.404;2023-03-04T09:34:49;95466.78;;;8.52;100.00
18167;BME280;9208;42.688;23.404;2023-03-04T09:37:15;95461.88;;;8.56;100.00
18167;BME280;9208;42.688;23.404;2023-03-04T09:39:40;95463.09;;;8.55;100.00
18167;BME280;9208;42.688;23.404;2023-03-04T09:42:08;95467.28;;;8.65;100.00
18167;BME280;9208;42.688;23.404;2023-03-04T09:44:42;95457.72;;;8.69;100.00
18167;BME280;9208;42.688;23.404;2023-03-04T09:47:15;95458.63;;;8.66;100.00
18167;BME280;9208;42.688;23.404;2023-03-04T09:49:43;95464.56;;;8.88;100.00
18167;BME280;9208;42.688;23.404;2023-03-04T09:55:15;95462.59;;;8.89;100.00
18167;BME280;9208;42.688;23.404;2023-03-04T09:57:51;95456.34;;;8.88;100.00
18167;BME280;9208;42.688;23.404;2023-03-04T10:00:25;95447.44;;;9.02;100.00
18167;BME280;9208;42.688;23.404;2023-03-04T10:03:17;95451.34;;;9.10;100.00
18167;BME280;9208;42.688;23.404;2023-03-04T10:06:06;95452.78;;;9.20;100.00
18167;BME280;9208;42.688;23.404;2023-03-04T10:08:39;95450.91;;;9.26;100.00
18167;BME280;9208;42.688;23.404;2023-03-04T10:11:14;95446.03;;;9.30;100.00
18167;BME280;9208;42.688;23.404;2023-03-04T10:16:17;95442.72;;;9.41;100.00
18167;BME280;9208;42.688;23.404;2023-03-04T10:21:44;95438.19;;;9.52;100.00
18167;BME280;9208;42.688;23.404;2023-03-04T10:24:11;95436.53;;;9.55;100.00
18167;BME280;9208;42.688;23.404;2023-03-04T10:26:41;95430.06;;;9.43;100.00
18167;BME280;9208;42.688;23.404;2023-03-04T10:29:14;95427.53;;;9.40;100.00
18167;BME280;9208;42.688;23.404;2023-03-04T10:31:40;95425.00;;;9.51;100.00
18167;BME280;9208;42.688;23.404;2023-03-04T10:34:10;95421.16;;;9.57;100.00
18167;BME280;9208;42.688;23.404;2023-03-04T10:36:49;95413.50;;;9.47;100.00
18167;BME280;9208;42.688;23.404;2023-03-04T10:39:24;95406.78;;;9.48;100.00
18167;BME280;9208;42.688;23.404;2023-03-04T10:42:04;95406.22;;;9.58;100.00
18167;BME280;9208;42.688;23.404;2023-03-04T10:44:35;95401.78;;;9.61;100.00
18167;BME280;9208;42.688;23.404;2023-03-04T10:47:09;95400.34;;;9.65;100.00
18167;BME280;9208;42.688;23.404;2023-03-04T10:49:49;95401.84;;;9.81;100.00
18167;BME280;9208;42.688;23.404;2023-03-04T10:52:26;95397.81;;;9.91;100.00
18167;BME280;9208;42.688;23.404;2023-03-04T10:55:03;95395.72;;;9.86;100.00
18167;BME280;9208;42.688;23.404;2023-03-04T10:57:38;95388.81;;;9.90;100.00
18167;BME280;9208;42.688;23.404;2023-03-04T11:02:43;95383.34;;;9.90;100.00
18167;BME280;9208;42.688;23.404;2023-03-04T11:08:00;95376.94;;;9.93;100.00
18167;BME280;9208;42.688;23.404;2023-03-04T11:10:30;95362.47;;;9.93;100.00
18167;BME280;9208;42.688;23.404;2023-03-04T11:13:16;95356.81;;;9.96;100.00
18167;BME280;9208;42.688;23.404;2023-03-04T11:16:00;95356.34;;;9.98;100.00
18167;BME280;9208;42.688;23.404;2023-03-04T11:18:49;95350.56;;;10.10;100.00
18167;BME280;9208;42.688;23.404;2023-03-04T11:21:18;95353.47;;;10.22;100.00
18167;BME280;9208;42.688;23.404;2023-03-04T11:23:52;95341.81;;;10.27;100.00
18167;BME280;9208;42.688;23.404;2023-03-04T11:26:27;95341.91;;;10.32;100.00
18167;BME280;9208;42.688;23.404;2023-03-04T11:28:59;95340.25;;;10.40;100.00
18167;BME280;9208;42.688;23.404;2023-03-04T11:31:47;95332.31;;;10.42;100.00
18167;BME280;9208;42.688;23.404;2023-03-04T11:45:11;95307.91;;;10.44;100.00
18167;BME280;9208;42.688;23.404;2023-03-04T11:50:27;95303.28;;;10.50;100.00
18167;BME280;9208;42.688;23.404;2023-03-04T11:55:40;95299.38;;;10.57;100.00
18167;BME280;9208;42.688;23.404;2023-03-04T12:01:09;95300.47;;;10.45;100.00
18167;BME280;9208;42.688;23.404;2023-03-04T12:09:07;95277.50;;;10.42;100.00
18167;BME280;9208;42.688;23.404;2023-03-04T12:14:23;95280.44;;;10.59;100.00
18167;BME280;9208;42.688;23.404;2023-03-04T12:19:43;95272.75;;;10.63;100.00
18167;BME280;9208;42.688;23.404;2023-03-04T12:22:37;95278.34;;;10.74;100.00
18167;BME280;9208;42.688;23.404;2023-03-04T12:35:55;95258.03;;;10.60;100.00
18167;BME280;9208;42.688;23.404;2023-03-04T12:52:38;95242.84;;;10.39;100.00
18167;BME280;9208;42.688;23.404;2023-03-04T12:55:13;95248.66;;;10.47;100.00
18167;BME280;9208;42.688;23.404;2023-03-04T12:57:40;95236.72;;;10.50;100.00
18167;BME280;9208;42.688;23.404;2023-03-04T13:16:39;95218.72;;;10.63;100.00
18167;BME280;9208;42.688;23.404;2023-03-04T13:22:29;95213.97;;;10.64;100.00
18167;BME280;9208;42.688;23.404;2023-03-04T13:24:58;95211.22;;;10.64;100.00
18167;BME280;9208;42.688;23.404;2023-03-04T13:41:12;95200.00;;;10.62;100.00
18167;BME280;9208;42.688;23.404;2023-03-04T13:53:52;95196.22;;;10.59;100.00
18167;BME280;9208;42.688;23.404;2023-03-04T14:01:34;95182.25;;;10.57;100.00
18167;BME280;9208;42.688;23.404;2023-03-04T14:04:09;95176.28;;;10.59;100.00
18167;BME280;9208;42.688;23.404;2023-03-04T14:06:44;95175.53;;;10.58;100.00
18167;BME280;9208;42.688;23.404;2023-03-04T14:09:21;95177.03;;;10.59;100.00
18167;BME280;9208;42.688;23.404;2023-03-04T14:11:49;95174.09;;;10.63;100.00
18167;BME280;9208;42.688;23.404;2023-03-04T14:14:21;95169.56;;;10.60;100.00
18167;BME280;9208;42.688;23.404;2023-03-04T14:16:51;95171.09;;;10.61;100.00
18167;BME280;9208;42.688;23.404;2023-03-04T14:19:28;95172.84;;;10.64;100.00
18167;BME280;9208;42.688;23.404;2023-03-04T14:21:54;95164.34;;;10.62;100.00
18167;BME280;9208;42.688;23.404;2023-03-04T14:24:21;95160.38;;;10.63;100.00
18167;BME280;9208;42.688;23.404;2023-03-04T14:26:47;95164.13;;;10.65;100.00
18167;BME280;9208;42.688;23.404;2023-03-04T14:29:24;95162.69;;;10.70;100.00
18167;BME280;9208;42.688;23.404;2023-03-04T14:31:51;95157.94;;;10.70;100.00
18167;BME280;9208;42.688;23.404;2023-03-04T14:34:34;95156.69;;;10.71;100.00
18167;BME280;9208;42.688;23.404;2023-03-04T14:37:02;95153.47;;;10.73;100.00
18167;BME280;9208;42.688;23.404;2023-03-04T14:39:30;95153.06;;;10.80;100.00
18167;BME280;9208;42.688;23.404;2023-03-04T14:42:03;95149.06;;;10.81;100.00
18167;BME280;9208;42.688;23.404;2023-03-04T14:44:35;95151.81;;;10.81;100.00
18167;BME280;9208;42.688;23.404;2023-03-04T14:47:22;95151.81;;;10.81;100.00
18167;BME280;9208;42.688;23.404;2023-03-04T14:49:48;95145.38;;;10.84;100.00
18167;BME280;9208;42.688;23.404;2023-03-04T14:52:37;95146.88;;;10.85;100.00
18167;BME280;9208;42.688;23.404;2023-03-04T14:55:21;95144.59;;;10.83;100.00
18167;BME280;9208;42.688;23.404;2023-03-04T14:57:52;95137.34;;;10.80;100.00
18167;BME280;9208;42.688;23.404;2023-03-04T15:03:02;95124.13;;;10.79;100.00
18167;BME280;9208;42.688;23.404;2023-03-04T15:05:43;95125.34;;;10.72;100.00
18167;BME280;9208;42.688;23.404;2023-03-04T15:08:27;95135.06;;;10.73;100.00